Time;durP1;ratioP1;P1;durP2;ratioP2;P2;SDS_P1;SDS_P2;PMS_P1;PMS_P2;Temp;Humidity;BMP_temperature;BMP_pressure;BME280_temperature;BME280_humidity;BME280_pressure;Samples;Min_cycle;Max_cycle;Signal;HPM_P1;HPM_P2
2021/03/16 00:00:10;;;;;;;;;;;;;;;2.69;73.51;99217.95;1807123;78;20489;-73
2021/03/16 00:02:56;;;;;;;;;;;;;;;2.68;73.47;99217.59;1798110;78;20243;-74
2021/03/16 00:05:26;;;;;;;;;;;;;;;2.66;73.43;99210.81;1794477;78;21928;-73
2021/03/16 00:07:54;;;;;;;;;;;;;;;2.64;73.38;99210.92;1794675;79;20397;-73
2021/03/16 00:10:21;;;;;;;;;;;;;;;2.63;73.30;99214.47;1796228;78;20222;-73
2021/03/16 00:12:48;;;;;;;;;;;;;;;2.62;73.19;99204.98;1792589;79;20467;-73
2021/03/16 00:15:16;;;;;;;;;;;;;;;2.61;73.10;99212.44;1787408;80;20218;-73
2021/03/16 00:17:44;;;;;;;;;;;;;;;2.59;72.99;99202.55;1793262;79;24200;-73
2021/03/16 00:20:14;;;;;;;;;;;;;;;2.59;72.91;99209.06;1804235;79;20307;-74
2021/03/16 00:22:41;;;;;;;;;;;;;;;2.58;72.72;99204.79;1789978;79;20213;-74
2021/03/16 00:25:12;;;;;;;;;;;;;;;2.56;72.58;99203.59;1789217;79;20499;-74
2021/03/16 00:27:39;;;;;;;;;;;;;;;2.57;72.47;99200.05;1788104;79;20226;-74
2021/03/16 00:30:09;;;;;;;;;;;;;;;2.57;72.32;99202.66;1787720;79;22918;-74
2021/03/16 00:32:36;;;;;;;;;;;;;;;2.56;72.22;99197.08;1813421;79;20244;-73
2021/03/16 00:35:06;;;;;;;;;;;;;;;2.56;72.12;99192.33;1803635;79;20225;-74
2021/03/16 00:37:34;;;;;;;;;;;;;;;2.55;72.01;99190.20;1773536;79;20455;-74
2021/03/16 00:40:01;;;;;;;;;;;;;;;2.55;71.91;99185.45;1787481;79;20300;-74
2021/03/16 00:42:29;;;;;;;;;;;;;;;2.55;71.84;99185.45;1788206;79;22054;-73
2021/03/16 00:44:56;;;;;;;;;;;;;;;2.53;71.77;99179.04;1787537;80;22468;-74
2021/03/16 00:47:24;;;;;;;;;;;;;;;2.53;71.74;99186.03;1787870;79;20217;-74
2021/03/16 00:49:52;;;;;;;;;;;;;;;2.50;71.66;99184.91;1799799;79;20473;-74
2021/03/16 00:52:19;;;;;;;;;;;;;;;2.49;71.66;99180.63;1813734;79;20220;-74
2021/03/16 00:54:46;;;;;;;;;;;;;;;2.46;71.64;99179.53;1787704;80;21909;-73
2021/03/16 00:57:14;;;;;;;;;;;;;;;2.43;71.61;99180.58;1736223;81;20407;-73
2021/03/16 00:59:41;;;;;;;;;;;;;;;2.40;71.59;99184.66;1787700;79;20218;-74
2021/03/16 01:02:09;;;;;;;;;;;;;;;2.39;71.63;99182.16;1787647;80;20231;-74
2021/03/16 01:04:37;;;;;;;;;;;;;;;2.37;71.61;99187.95;1787884;79;20250;-74
2021/03/16 01:07:04;;;;;;;;;;;;;;;2.36;71.60;99182.38;1797756;79;22076;-74
2021/03/16 01:09:31;;;;;;;;;;;;;;;2.34;71.62;99183.78;1788809;79;20222;-74
2021/03/16 01:11:59;;;;;;;;;;;;;;;2.32;71.67;99176.97;1787839;79;20214;-74
2021/03/16 01:14:26;;;;;;;;;;;;;;;2.30;71.65;99177.91;1788053;79;20942;-74
2021/03/16 01:16:54;;;;;;;;;;;;;;;2.28;71.69;99177.17;1787303;79;20288;-74
2021/03/16 01:19:21;;;;;;;;;;;;;;;2.27;71.68;99175.98;1787849;79;22043;-74
2021/03/16 01:21:48;;;;;;;;;;;;;;;2.26;71.71;99173.01;1788111;79;20401;-74
2021/03/16 01:24:15;;;;;;;;;;;;;;;2.24;71.71;99179.63;1787180;80;20223;-74
2021/03/16 01:26:45;;;;;;;;;;;;;;;2.23;71.73;99177.13;1796053;79;20216;-74
2021/03/16 01:29:12;;;;;;;;;;;;;;;2.23;71.74;99181.03;1794972;79;20651;-74
2021/03/16 01:31:40;;;;;;;;;;;;;;;2.21;71.74;99174.59;1787919;79;22471;-74
2021/03/16 01:34:20;;;;;;;;;;;;;;;2.20;71.79;99166.88;1764936;80;20391;-73
2021/03/16 01:37:06;;;;;;;;;;;;;;;2.19;71.84;99171.72;1787528;79;20209;-74
2021/03/16 01:39:35;;;;;;;;;;;;;;;2.16;71.90;99168.86;1787387;79;20395;-73
2021/03/16 01:42:02;;;;;;;;;;;;;;;2.15;71.93;99172.87;1788877;79;20234;-74
2021/03/16 01:44:29;;;;;;;;;;;;;;;2.14;71.97;99170.73;1787277;80;22059;-74
2021/03/16 01:46:59;;;;;;;;;;;;;;;2.12;72.04;99171.27;1789414;79;20234;-74
2021/03/16 01:49:27;;;;;;;;;;;;;;;2.11;72.05;99170.07;1787552;79;20478;-74
2021/03/16 01:51:54;;;;;;;;;;;;;;;2.10;72.09;99171.84;1791076;79;20272;-73
2021/03/16 01:54:21;;;;;;;;;;;;;;;2.10;72.12;99165.33;1790926;79;20218;-73
2021/03/16 01:56:49;;;;;;;;;;;;;;;2.10;72.14;99166.63;1787360;80;21889;-73
2021/03/16 01:59:35;;;;;;;;;;;;;;;2.10;72.18;99168.41;1793936;79;20308;-74
2021/03/16 02:02:21;;;;;;;;;;;;;;;2.08;72.21;99160.69;1787400;80;20221;-74
2021/03/16 02:05:08;;;;;;;;;;;;;;;2.08;72.25;99168.50;1779988;79;20309;-74
2021/03/16 02:08:01;;;;;;;;;;;;;;;2.09;72.29;99171.48;1787435;79;20227;-73
2021/03/16 02:11:07;;;;;;;;;;;;;;;2.07;72.32;99172.05;1791461;79;22083;-74
2021/03/16 02:14:00;;;;;;;;;;;;;;;2.07;72.36;99168.14;1798595;79;20460;-74
2021/03/16 02:17:06;;;;;;;;;;;;;;;2.07;72.35;99173.35;1806690;79;20218;-75
2021/03/16 02:19:59;;;;;;;;;;;;;;;2.09;72.36;99174.08;1788069;79;20479;-75
2021/03/16 02:22:45;;;;;;;;;;;;;;;2.08;72.37;99176.31;1787554;80;20401;-74
2021/03/16 02:25:43;;;;;;;;;;;;;;;2.07;72.40;99176.42;1810497;79;22078;-75
2021/03/16 02:28:36;;;;;;;;;;;;;;;2.06;72.46;99173.45;1787610;79;20233;-74
2021/03/16 02:31:21;;;;;;;;;;;;;;;2.05;72.51;99175.22;1788144;79;20241;-74
2021/03/16 02:34:07;;;;;;;;;;;;;;;2.05;72.55;99173.92;1795043;79;20316;-73
2021/03/16 02:36:53;;;;;;;;;;;;;;;2.06;72.57;99170.37;1787605;79;20220;-73
2021/03/16 02:39:39;;;;;;;;;;;;;;;2.08;72.60;99169.81;1791723;79;21890;-73
2021/03/16 02:42:25;;;;;;;;;;;;;;;2.08;72.62;99173.72;1804296;79;20214;-73
2021/03/16 02:45:12;;;;;;;;;;;;;;;2.09;72.66;99184.50;1787592;79;20219;-72
2021/03/16 02:47:58;;;;;;;;;;;;;;;2.11;72.68;99181.80;1787131;80;20308;-74
2021/03/16 02:50:45;;;;;;;;;;;;;;;2.11;72.72;99181.80;1799088;79;20240;-73
2021/03/16 02:53:33;;;;;;;;;;;;;;;2.11;72.72;99180.49;1794585;79;21901;-73
2021/03/16 02:56:20;;;;;;;;;;;;;;;2.14;72.76;99186.83;1787725;79;20354;-73
2021/03/16 02:59:08;;;;;;;;;;;;;;;2.13;72.77;99188.59;1795585;79;20218;-74
2021/03/16 03:01:56;;;;;;;;;;;;;;;2.14;72.79;99189.44;1787135;80;20274;-73
2021/03/16 03:04:42;;;;;;;;;;;;;;;2.15;72.81;99189.33;1789174;79;20274;-76
2021/03/16 03:07:28;;;;;;;;;;;;;;;2.15;72.82;99195.84;1789306;79;21746;-76
2021/03/16 03:10:13;;;;;;;;;;;;;;;2.14;72.80;99187.66;1787137;80;20493;-78
2021/03/16 03:12:59;;;;;;;;;;;;;;;2.12;72.84;99188.67;1792699;79;20222;-77
2021/03/16 03:15:44;;;;;;;;;;;;;;;2.08;72.88;99193.72;1770281;79;20835;-76
2021/03/16 03:18:31;;;;;;;;;;;;;;;2.06;72.94;99192.52;1767763;79;20649;-75
2021/03/16 03:21:20;;;;;;;;;;;;;;;2.04;72.99;99200.06;1801758;79;22085;-76
2021/03/16 03:24:08;;;;;;;;;;;;;;;1.99;73.05;99202.48;1777847;79;20334;-75
2021/03/16 03:27:07;;;;;;;;;;;;;;;1.95;73.14;99198.88;1815932;79;20399;-75
2021/03/16 03:29:55;;;;;;;;;;;;;;;1.93;73.21;99205.48;1800209;79;20302;-75
2021/03/16 03:32:40;;;;;;;;;;;;;;;1.90;73.37;99208.26;1763155;80;20225;-76
2021/03/16 03:35:29;;;;;;;;;;;;;;;1.86;73.46;99210.70;1775818;79;21907;-75
2021/03/16 03:38:15;;;;;;;;;;;;;;;1.85;73.55;99217.30;1791011;79;20674;-74
2021/03/16 03:41:02;;;;;;;;;;;;;;;1.85;73.68;99216.00;1783781;79;20964;-75
2021/03/16 03:43:48;;;;;;;;;;;;;;;1.83;73.73;99210.03;1799084;79;20749;-75
2021/03/16 03:46:34;;;;;;;;;;;;;;;1.81;73.82;99204.92;1811659;79;20222;-75
2021/03/16 03:49:20;;;;;;;;;;;;;;;1.80;73.87;99208.93;1769885;80;22586;-75
2021/03/16 03:52:07;;;;;;;;;;;;;;;1.79;73.95;99194.24;1765035;79;20627;-76
2021/03/16 03:54:52;;;;;;;;;;;;;;;1.76;74.09;99203.09;1792378;79;20206;-76
2021/03/16 03:57:40;;;;;;;;;;;;;;;1.73;74.18;99198.88;1807246;79;20884;-75
2021/03/16 04:00:26;;;;;;;;;;;;;;;1.72;74.26;99202.42;1803372;79;20490;-75
2021/03/16 04:03:12;;;;;;;;;;;;;;;1.72;74.35;99204.19;1815891;79;21608;-75
2021/03/16 04:05:57;;;;;;;;;;;;;;;1.72;74.39;99205.49;1788152;79;20382;-75
2021/03/16 04:08:43;;;;;;;;;;;;;;;1.69;74.50;99209.59;1765227;79;20221;-76
2021/03/16 04:11:29;;;;;;;;;;;;;;;1.66;74.56;99202.81;1801476;79;20374;-76
2021/03/16 04:14:15;;;;;;;;;;;;;;;1.62;74.67;99209.13;1803006;79;20293;-76
2021/03/16 04:17:01;;;;;;;;;;;;;;;1.60;74.72;99210.98;1803650;79;22702;-76
2021/03/16 04:19:50;;;;;;;;;;;;;;;1.57;74.81;99212.48;1778985;80;20676;-76
2021/03/16 04:22:34;;;;;;;;;;;;;;;1.56;74.95;99212.59;1791559;80;20218;-76
2021/03/16 04:25:20;;;;;;;;;;;;;;;1.54;75.09;99211.82;1790905;79;20487;-75
2021/03/16 04:28:06;;;;;;;;;;;;;;;1.51;75.24;99204.20;1809928;79;20220;-75
2021/03/16 04:30:54;;;;;;;;;;;;;;;1.50;75.41;99208.58;1801991;79;21895;-76
2021/03/16 04:33:40;;;;;;;;;;;;;;;1.51;75.49;99214.62;1764461;80;20267;-76
2021/03/16 04:36:26;;;;;;;;;;;;;;;1.51;75.60;99220.66;1808926;79;20287;-76
2021/03/16 04:39:12;;;;;;;;;;;;;;;1.53;75.74;99216.19;1791591;79;20321;-76
2021/03/16 04:41:58;;;;;;;;;;;;;;;1.55;75.86;99217.42;1816594;79;20547;-76
2021/03/16 04:44:44;;;;;;;;;;;;;;;1.56;75.88;99206.92;1807009;79;22484;-77
2021/03/16 04:47:30;;;;;;;;;;;;;;;1.62;75.95;99209.59;1749885;80;21268;-76
2021/03/16 04:50:16;;;;;;;;;;;;;;;1.66;75.98;99202.81;1771920;79;20272;-76
2021/03/16 04:53:03;;;;;;;;;;;;;;;1.71;76.00;99211.62;1748471;80;20221;-76
2021/03/16 04:55:50;;;;;;;;;;;;;;;1.73;76.04;99201.95;1793572;78;20220;-76
2021/03/16 04:58:38;;;;;;;;;;;;;;;1.75;76.10;99210.53;1797650;78;21948;-79
2021/03/16 05:01:24;;;;;;;;;;;;;;;1.78;76.11;99211.62;1776930;80;20811;-77
2021/03/16 05:04:10;;;;;;;;;;;;;;;1.83;76.11;99208.73;1801136;78;20210;-77
2021/03/16 05:06:56;;;;;;;;;;;;;;;1.88;76.12;99218.41;1773663;80;21577;-76
2021/03/16 05:09:43;;;;;;;;;;;;;;;1.91;76.11;99210.39;1786557;78;20238;-78
2021/03/16 05:12:29;;;;;;;;;;;;;;;1.94;76.10;99198.51;1777431;80;21826;-78
2021/03/16 05:15:16;;;;;;;;;;;;;;;1.96;76.10;99205.75;1800838;78;20407;-78
2021/03/16 05:18:01;;;;;;;;;;;;;;;2.00;76.08;99205.91;1789685;80;20489;-78
2021/03/16 05:20:48;;;;;;;;;;;;;;;2.04;76.04;99206.58;1812617;78;20290;-76
2021/03/16 05:23:34;;;;;;;;;;;;;;;2.06;76.03;99206.84;1798578;78;20234;-74
2021/03/16 05:26:20;;;;;;;;;;;;;;;2.06;75.96;99199.03;1800487;78;22067;-77
2021/03/16 05:29:08;;;;;;;;;;;;;;;2.07;75.94;99194.19;1796348;78;20368;-76
2021/03/16 05:31:54;;;;;;;;;;;;;;;2.09;75.89;99204.50;1796634;78;20221;-76
2021/03/16 05:34:40;;;;;;;;;;;;;;;2.11;75.91;99198.25;1795588;80;20280;-74
2021/03/16 05:37:26;;;;;;;;;;;;;;;2.15;75.88;99204.12;1795492;80;20246;-73
2021/03/16 05:40:13;;;;;;;;;;;;;;;2.18;75.84;99201.31;1802665;78;21846;-76
2021/03/16 05:42:59;;;;;;;;;;;;;;;2.22;75.85;99195.83;1796153;78;20814;-76
2021/03/16 05:45:44;;;;;;;;;;;;;;;2.23;75.76;99203.17;1810882;78;20389;-76
2021/03/16 05:48:31;;;;;;;;;;;;;;;2.24;75.79;99211.36;1802351;79;21184;-77
2021/03/16 05:51:17;;;;;;;;;;;;;;;2.27;75.72;99213.75;1806853;78;20255;-77
2021/03/16 05:54:04;;;;;;;;;;;;;;;2.30;75.68;99215.69;1795468;80;22345;-75
2021/03/16 05:56:49;;;;;;;;;;;;;;;2.29;75.61;99217.93;1806465;78;20226;-76
2021/03/16 05:59:37;;;;;;;;;;;;;;;2.27;75.62;99219.80;1806921;79;20272;-78
2021/03/16 06:02:23;;;;;;;;;;;;;;;2.30;75.58;99232.63;1795337;80;20302;-77
2021/03/16 06:05:09;;;;;;;;;;;;;;;2.28;75.56;99224.55;1799357;78;20234;-77
2021/03/16 06:07:55;;;;;;;;;;;;;;;2.25;75.60;99222.14;1796154;78;21687;-76
2021/03/16 06:10:41;;;;;;;;;;;;;;;2.29;75.64;99228.34;1799030;78;20274;-76
2021/03/16 06:13:27;;;;;;;;;;;;;;;2.32;75.65;99235.16;1796995;78;20279;-76
2021/03/16 06:16:15;;;;;;;;;;;;;;;2.33;75.66;99235.99;1797903;78;20297;-76
2021/03/16 06:19:04;;;;;;;;;;;;;;;2.30;75.67;99245.65;1805180;78;20230;-76
2021/03/16 06:22:06;;;;;;;;;;;;;;;2.30;75.77;99240.44;1800795;78;22857;-77
2021/03/16 06:24:52;;;;;;;;;;;;;;;2.34;75.86;99240.27;1814091;78;20212;-77
2021/03/16 06:27:38;;;;;;;;;;;;;;;2.38;75.87;99246.94;1806353;78;20222;-77
2021/03/16 06:30:25;;;;;;;;;;;;;;;2.40;75.84;99244.59;1803203;78;20729;-76
2021/03/16 06:33:19;;;;;;;;;;;;;;;2.42;75.82;99242.76;1796986;78;20209;-76
2021/03/16 06:36:07;;;;;;;;;;;;;;;2.47;75.82;99239.84;1795434;78;22349;-76
2021/03/16 06:38:55;;;;;;;;;;;;;;;2.53;75.79;99242.06;1799011;78;20502;-77
2021/03/16 06:41:41;;;;;;;;;;;;;;;2.53;75.68;99241.59;1796609;78;20238;-76
2021/03/16 06:44:27;;;;;;;;;;;;;;;2.56;75.64;99244.00;1795475;80;20297;-76
2021/03/16 06:47:15;;;;;;;;;;;;;;;2.59;75.65;99243.78;1799775;78;20483;-77
2021/03/16 06:50:04;;;;;;;;;;;;;;;2.68;75.68;99247.57;1792868;79;22787;-77
2021/03/16 06:52:50;;;;;;;;;;;;;;;2.73;75.51;99245.98;1797602;78;20264;-77
2021/03/16 06:55:36;;;;;;;;;;;;;;;2.74;75.39;99239.83;1808740;78;20238;-77
2021/03/16 06:58:32;;;;;;;;;;;;;;;2.78;75.35;99247.81;1814592;78;20297;-77
2021/03/16 07:01:18;;;;;;;;;;;;;;;2.79;75.31;99232.53;1798042;78;20270;-77
2021/03/16 07:04:14;;;;;;;;;;;;;;;2.82;75.17;99248.00;1797705;79;21732;-77
2021/03/16 07:07:00;;;;;;;;;;;;;;;2.82;75.14;99246.22;1802489;78;21520;-77
2021/03/16 07:09:46;;;;;;;;;;;;;;;2.83;75.05;99231.41;1799234;78;20217;-76
2021/03/16 07:12:34;;;;;;;;;;;;;;;2.85;75.14;99234.28;1796338;78;20302;-76
2021/03/16 07:15:20;;;;;;;;;;;;;;;2.85;74.96;99244.70;1808118;78;20210;-76
2021/03/16 07:18:09;;;;;;;;;;;;;;;2.79;74.88;99245.56;1816872;78;22540;-76
2021/03/16 07:20:56;;;;;;;;;;;;;;;2.73;74.88;99244.22;1792615;78;20615;-77
2021/03/16 07:23:47;;;;;;;;;;;;;;;2.69;75.00;99243.19;1799621;79;20217;-77
2021/03/16 07:26:32;;;;;;;;;;;;;;;2.70;75.07;99234.44;1811475;78;20480;-75
2021/03/16 07:29:19;;;;;;;;;;;;;;;2.70;75.08;99244.42;1795680;78;20215;-75
2021/03/16 07:32:07;;;;;;;;;;;;;;;2.76;75.25;99236.66;1796145;78;21894;-78
2021/03/16 07:34:56;;;;;;;;;;;;;;;2.82;75.24;99231.87;1806897;78;20396;-74
2021/03/16 07:37:42;;;;;;;;;;;;;;;2.96;75.33;99234.03;1760132;79;20216;-77
2021/03/16 07:40:28;;;;;;;;;;;;;;;3.09;75.11;99240.96;1782255;79;20370;-78
2021/03/16 07:43:14;;;;;;;;;;;;;;;3.15;74.86;99233.17;1790828;79;20294;-74
2021/03/16 07:46:11;;;;;;;;;;;;;;;3.13;74.49;99228.53;1792174;79;21953;-78
2021/03/16 07:48:57;;;;;;;;;;;;;;;3.11;74.56;99240.85;1778847;79;20357;-77
2021/03/16 07:51:44;;;;;;;;;;;;;;;3.13;74.39;99237.67;1780347;79;20406;-79
2021/03/16 07:54:36;;;;;;;;;;;;;;;3.11;74.28;99236.94;1779250;79;20967;-76
2021/03/16 07:57:30;;;;;;;;;;;;;;;3.07;74.16;99237.59;1777116;79;20209;-74
2021/03/16 08:00:29;;;;;;;;;;;;;;;3.05;74.23;99233.42;1780151;79;21747;-74
2021/03/16 08:03:23;;;;;;;;;;;;;;;3.07;74.28;99230.23;1780814;79;20443;-73
2021/03/16 08:06:26;;;;;;;;;;;;;;;3.07;74.14;99236.76;1784954;79;20295;-73
2021/03/16 08:09:21;;;;;;;;;;;;;;;3.08;74.17;99240.56;1776693;79;20467;-75
2021/03/16 08:12:23;;;;;;;;;;;;;;;3.13;74.26;99228.53;1794531;78;20292;-73
2021/03/16 08:15:13;;;;;;;;;;;;;;;3.21;74.13;99235.85;1813151;78;23046;-71
2021/03/16 08:17:59;;;;;;;;;;;;;;;3.21;73.98;99234.55;1818849;78;20747;-74
2021/03/16 08:20:47;;;;;;;;;;;;;;;3.20;73.89;99233.72;1763219;80;20244;-71
2021/03/16 08:23:32;;;;;;;;;;;;;;;3.21;73.87;99235.38;1806890;78;20372;-72
2021/03/16 08:26:18;;;;;;;;;;;;;;;3.25;73.92;99238.14;1808987;78;20268;-71
2021/03/16 08:29:04;;;;;;;;;;;;;;;3.33;73.94;99238.94;1825981;78;21900;-73
2021/03/16 08:31:56;;;;;;;;;;;;;;;3.40;73.91;99235.81;1808011;79;20280;-74
2021/03/16 08:34:42;;;;;;;;;;;;;;;3.52;73.88;99231.98;1777110;79;20285;-73
2021/03/16 08:37:33;;;;;;;;;;;;;;;3.71;73.91;99237.14;1782039;79;20456;-74
2021/03/16 08:40:24;;;;;;;;;;;;;;;3.96;73.82;99230.22;1818486;78;20280;-73
2021/03/16 08:43:10;;;;;;;;;;;;;;;4.24;73.36;99232.52;1779966;79;21742;-75
2021/03/16 08:45:57;;;;;;;;;;;;;;;4.43;73.06;99225.50;1764811;80;20270;-74
2021/03/16 08:48:45;;;;;;;;;;;;;;;4.62;72.51;99212.39;1794493;78;20277;-73
2021/03/16 08:51:33;;;;;;;;;;;;;;;4.72;71.38;99218.61;1807745;78;20498;-72
2021/03/16 08:54:24;;;;;;;;;;;;;;;4.68;70.99;99219.33;1798306;78;20270;-74
2021/03/16 08:57:09;;;;;;;;;;;;;;;4.70;70.90;99222.66;1794603;79;22075;-73
2021/03/16 08:59:58;;;;;;;;;;;;;;;4.76;70.56;99224.00;1783061;78;20274;-73
2021/03/16 09:02:43;;;;;;;;;;;;;;;4.82;70.22;99223.52;1794452;80;20222;-72
2021/03/16 09:05:30;;;;;;;;;;;;;;;4.85;69.86;99211.07;1795320;78;20487;-73
2021/03/16 09:08:19;;;;;;;;;;;;;;;4.86;69.66;99219.75;1807153;78;20298;-73
2021/03/16 09:11:05;;;;;;;;;;;;;;;4.84;69.45;99227.72;1785962;78;22504;-74
2021/03/16 09:13:51;;;;;;;;;;;;;;;4.74;69.05;99227.20;1799696;79;20929;-74
2021/03/16 09:16:53;;;;;;;;;;;;;;;4.65;69.34;99226.57;1813731;79;20590;-73
2021/03/16 09:19:41;;;;;;;;;;;;;;;4.69;69.62;99213.14;1794330;80;20275;-74
2021/03/16 09:22:27;;;;;;;;;;;;;;;4.78;69.41;99219.48;1805352;78;20221;-74
2021/03/16 09:25:13;;;;;;;;;;;;;;;4.87;69.71;99213.09;1816725;78;22134;-74
2021/03/16 09:28:00;;;;;;;;;;;;;;;5.12;69.78;99214.72;1809816;78;20368;-74
2021/03/16 09:30:53;;;;;;;;;;;;;;;5.39;69.19;99212.24;1789189;79;20295;-74
2021/03/16 09:33:41;;;;;;;;;;;;;;;5.53;68.73;99219.89;1790475;80;20311;-74
2021/03/16 09:36:30;;;;;;;;;;;;;;;5.72;68.33;99222.76;1808300;79;20244;-73
2021/03/16 09:39:18;;;;;;;;;;;;;;;5.77;67.78;99208.45;1779850;79;22071;-73
2021/03/16 09:41:56;;;;;;;;;;;;;;;5.90;67.64;99219.66;1770917;80;20658;-73
2021/03/16 09:44:29;;;;;;;;;;;;;;;5.94;66.93;99217.17;1801062;79;20241;-75
2021/03/16 09:46:56;;;;;;;;;;;;;;;5.98;67.07;99209.41;1817519;78;20448;-75
2021/03/16 09:49:37;;;;;;;;;;;;;;;6.12;66.71;99213.58;1807243;78;20560;-74
2021/03/16 09:52:11;;;;;;;;;;;;;;;6.18;66.44;99210.00;1797138;78;22072;-76
2021/03/16 09:54:42;;;;;;;;;;;;;;;6.20;66.08;99211.19;1814160;78;20293;-75
2021/03/16 09:57:14;;;;;;;;;;;;;;;6.23;65.65;99210.94;1787955;78;20245;-75
2021/03/16 09:59:43;;;;;;;;;;;;;;;6.14;65.45;99222.15;1798877;78;20335;-75
2021/03/16 10:02:11;;;;;;;;;;;;;;;5.95;64.99;99220.15;1803372;78;20275;-75
2021/03/16 10:04:49;;;;;;;;;;;;;;;5.69;65.72;99222.14;1803375;78;22845;-74
2021/03/16 10:07:26;;;;;;;;;;;;;;;5.63;66.10;99218.23;1798700;78;20385;-75
2021/03/16 10:10:10;;;;;;;;;;;;;;;5.67;66.46;99217.02;1807052;78;20274;-75
2021/03/16 10:12:39;;;;;;;;;;;;;;;5.73;66.43;99211.32;1804965;78;20970;-76
2021/03/16 10:15:08;;;;;;;;;;;;;;;5.71;66.27;99209.78;1765894;80;20265;-76
2021/03/16 10:17:37;;;;;;;;;;;;;;;5.57;66.17;99209.52;1780997;78;22363;-76
2021/03/16 10:20:06;;;;;;;;;;;;;;;5.44;66.66;99216.19;1785938;79;20977;-76
2021/03/16 10:22:35;;;;;;;;;;;;;;;5.47;66.83;99215.11;1787750;79;20269;-79
2021/03/16 10:25:04;;;;;;;;;;;;;;;5.50;66.52;99220.59;1792993;79;20471;-75
2021/03/16 10:27:32;;;;;;;;;;;;;;;5.44;66.70;99217.98;1788450;79;20216;-74
2021/03/16 10:30:08;;;;;;;;;;;;;;;5.47;66.62;99219.04;1786525;79;22013;-75
2021/03/16 10:32:37;;;;;;;;;;;;;;;5.50;66.72;99216.21;1788346;79;20372;-76
2021/03/16 10:35:07;;;;;;;;;;;;;;;5.68;66.75;99216.07;1781002;78;20275;-77
2021/03/16 10:37:34;;;;;;;;;;;;;;;6.01;66.94;99204.78;1780420;80;20471;-77
2021/03/16 10:40:01;;;;;;;;;;;;;;;6.42;66.83;99211.59;1740009;80;20612;-77
2021/03/16 10:42:29;;;;;;;;;;;;;;;6.74;65.99;99211.11;1781477;79;21893;-76
2021/03/16 10:44:56;;;;;;;;;;;;;;;6.89;65.40;99211.17;1786341;79;20796;-75
2021/03/16 10:47:23;;;;;;;;;;;;;;;6.95;64.96;99214.23;1738021;81;20222;-74
2021/03/16 10:49:51;;;;;;;;;;;;;;;6.98;64.81;99212.69;1741235;81;20458;-76
2021/03/16 10:52:18;;;;;;;;;;;;;;;6.99;64.62;99212.56;1781611;80;20508;-74
2021/03/16 10:54:47;;;;;;;;;;;;;;;6.93;64.27;99214.37;1788133;79;22663;-74
2021/03/16 10:57:15;;;;;;;;;;;;;;;6.87;64.24;99205.70;1781555;79;20364;-75
2021/03/16 10:59:44;;;;;;;;;;;;;;;6.81;64.42;99209.66;1781591;79;20223;-74
2021/03/16 11:02:11;;;;;;;;;;;;;;;6.78;64.53;99209.09;1787520;79;21312;-75
2021/03/16 11:04:39;;;;;;;;;;;;;;;6.77;64.52;99211.36;1786991;79;20423;-75
2021/03/16 11:07:07;;;;;;;;;;;;;;;6.74;64.79;99201.09;1784039;79;22513;-76
2021/03/16 11:09:34;;;;;;;;;;;;;;;6.75;64.66;99199.66;1782615;80;20449;-75
2021/03/16 11:12:02;;;;;;;;;;;;;;;6.69;64.69;99204.59;1789409;79;20232;-76
2021/03/16 11:14:29;;;;;;;;;;;;;;;6.67;65.03;99198.16;1803958;79;20918;-77
2021/03/16 11:16:58;;;;;;;;;;;;;;;6.85;65.37;99190.55;1791389;79;20275;-77
2021/03/16 11:19:26;;;;;;;;;;;;;;;7.19;65.91;99193.83;1792576;79;21933;-78
2021/03/16 11:21:53;;;;;;;;;;;;;;;7.66;65.56;99199.47;1788050;79;20371;-76
2021/03/16 11:24:20;;;;;;;;;;;;;;;8.11;64.80;99181.49;1788946;79;20219;-76
2021/03/16 11:26:47;;;;;;;;;;;;;;;8.46;63.74;99184.95;1787149;79;21357;-76
2021/03/16 11:29:14;;;;;;;;;;;;;;;8.72;62.73;99179.98;1784546;79;20219;-76
2021/03/16 11:31:41;;;;;;;;;;;;;;;8.94;62.29;99172.27;1781429;80;22568;-76
2021/03/16 11:34:30;;;;;;;;;;;;;;;9.18;61.76;99175.28;1781271;79;20380;-76
2021/03/16 11:37:15;;;;;;;;;;;;;;;9.45;61.16;99167.90;1792310;79;20216;-76
2021/03/16 11:40:01;;;;;;;;;;;;;;;9.56;59.62;99169.55;1781965;79;20312;-77
2021/03/16 11:42:46;;;;;;;;;;;;;;;9.61;59.67;99175.70;1781569;80;20382;-76
2021/03/16 11:45:34;;;;;;;;;;;;;;;9.76;59.30;99171.63;1788650;79;21845;-76
2021/03/16 11:48:20;;;;;;;;;;;;;;;9.95;58.80;99164.10;1782029;79;20389;-76
2021/03/16 11:51:06;;;;;;;;;;;;;;;10.12;58.28;99165.92;1802385;79;20212;-75
2021/03/16 11:53:52;;;;;;;;;;;;;;;10.36;58.23;99164.08;1782024;79;21222;-76
2021/03/16 11:56:37;;;;;;;;;;;;;;;10.49;57.13;99160.56;1781540;80;20220;-76
2021/03/16 11:59:24;;;;;;;;;;;;;;;10.67;56.78;99165.02;1781570;79;22074;-74
2021/03/16 12:02:10;;;;;;;;;;;;;;;10.93;57.13;99159.78;1794289;79;20370;-74
2021/03/16 12:04:56;;;;;;;;;;;;;;;11.03;54.28;99160.52;1789041;79;20216;-75
2021/03/16 12:07:43;;;;;;;;;;;;;;;10.77;54.68;99161.80;1783271;79;20267;-74
2021/03/16 12:10:29;;;;;;;;;;;;;;;10.49;55.36;99161.05;1786567;79;20211;-75
2021/03/16 12:13:16;;;;;;;;;;;;;;;10.39;55.45;99162.94;1793052;79;21885;-73
2021/03/16 12:16:02;;;;;;;;;;;;;;;10.40;55.79;99157.99;1790356;79;20223;-77
2021/03/16 12:18:48;;;;;;;;;;;;;;;10.46;55.85;99159.55;1798134;79;20268;-78
2021/03/16 12:21:34;;;;;;;;;;;;;;;10.63;56.21;99159.22;1788482;79;20539;-74
2021/03/16 12:24:21;;;;;;;;;;;;;;;10.71;55.12;99155.33;1808814;79;20217;-76
2021/03/16 12:27:07;;;;;;;;;;;;;;;10.61;55.28;99153.23;1809166;79;22847;-74
2021/03/16 12:29:53;;;;;;;;;;;;;;;10.69;55.48;99148.02;1798974;79;20810;-73
2021/03/16 12:32:39;;;;;;;;;;;;;;;10.91;55.38;99153.34;1790578;79;20262;-79
2021/03/16 12:35:25;;;;;;;;;;;;;;;11.13;55.14;99152.00;1787542;79;20529;-76
2021/03/16 12:38:10;;;;;;;;;;;;;;;11.40;54.89;99151.02;1792566;79;20211;-75
2021/03/16 12:40:56;;;;;;;;;;;;;;;11.65;54.17;99147.98;1790987;79;21323;-74
2021/03/16 12:43:42;;;;;;;;;;;;;;;11.89;53.17;99144.16;1807333;79;20457;-73
2021/03/16 12:46:28;;;;;;;;;;;;;;;11.79;52.08;99138.64;1792332;79;20492;-73
2021/03/16 12:49:19;;;;;;;;;;;;;;;11.74;52.90;99131.16;1791538;79;20461;-73
2021/03/16 12:52:04;;;;;;;;;;;;;;;11.83;52.36;99126.27;1789861;79;20220;-73
2021/03/16 12:54:50;;;;;;;;;;;;;;;11.96;52.40;99126.63;1790967;79;21996;-73
2021/03/16 12:57:37;;;;;;;;;;;;;;;12.20;51.47;99121.08;1788298;79;20389;-72
2021/03/16 13:00:24;;;;;;;;;;;;;;;12.22;51.71;99118.59;1799726;79;20389;-74
2021/03/16 13:03:12;;;;;;;;;;;;;;;12.51;51.25;99119.45;1791365;79;20433;-74
2021/03/16 13:05:59;;;;;;;;;;;;;;;12.60;50.51;99113.67;1803337;79;20224;-73
2021/03/16 13:08:46;;;;;;;;;;;;;;;12.57;50.69;99105.56;1787570;79;22006;-73
2021/03/16 13:11:32;;;;;;;;;;;;;;;12.73;49.62;99118.46;1789553;79;20471;-77
2021/03/16 13:14:18;;;;;;;;;;;;;;;12.64;50.29;99111.51;1788341;79;20467;-77
2021/03/16 13:17:04;;;;;;;;;;;;;;;12.62;50.33;99115.66;1797173;79;20689;-73
2021/03/16 13:19:51;;;;;;;;;;;;;;;12.65;50.34;99114.52;1792658;79;20218;-72
2021/03/16 13:22:36;;;;;;;;;;;;;;;12.74;50.30;99117.00;1793925;79;21834;-73
2021/03/16 13:25:22;;;;;;;;;;;;;;;12.87;49.83;99115.98;1795525;79;20216;-76
2021/03/16 13:28:09;;;;;;;;;;;;;;;12.88;49.84;99116.31;1787687;79;20206;-73
2021/03/16 13:30:56;;;;;;;;;;;;;;;13.08;49.63;99115.45;1799688;79;20531;-73
2021/03/16 13:33:43;;;;;;;;;;;;;;;13.32;49.33;99113.80;1802078;79;20218;-71
2021/03/16 13:36:30;;;;;;;;;;;;;;;13.52;49.50;99114.23;1807673;79;22088;-74
2021/03/16 13:39:15;;;;;;;;;;;;;;;13.75;48.46;99110.63;1789714;79;20212;-73
2021/03/16 13:42:01;;;;;;;;;;;;;;;13.89;48.14;99111.72;1800803;79;20577;-73
2021/03/16 13:44:47;;;;;;;;;;;;;;;13.96;47.68;99114.02;1787224;79;20490;-73
2021/03/16 13:47:35;;;;;;;;;;;;;;;13.94;47.16;99117.34;1804809;79;20251;-72
2021/03/16 13:50:21;;;;;;;;;;;;;;;13.68;47.55;99118.95;1768364;80;21952;-73
2021/03/16 13:53:07;;;;;;;;;;;;;;;13.68;47.26;99122.10;1759917;80;20490;-73
2021/03/16 13:55:53;;;;;;;;;;;;;;;13.59;47.45;99126.61;1729429;81;20219;-73
2021/03/16 13:58:40;;;;;;;;;;;;;;;13.52;47.27;99123.02;1759360;80;20465;-73
2021/03/16 14:01:26;;;;;;;;;;;;;;;13.34;47.61;99122.40;1764052;80;20655;-74
2021/03/16 14:04:13;;;;;;;;;;;;;;;13.12;47.85;99123.41;1745284;80;21974;-78
2021/03/16 14:06:59;;;;;;;;;;;;;;;13.00;48.49;99130.04;1787186;79;20371;-74
2021/03/16 14:09:46;;;;;;;;;;;;;;;12.83;48.50;99125.74;1799242;79;20384;-75
2021/03/16 14:12:32;;;;;;;;;;;;;;;12.39;49.17;99123.42;1793996;79;20533;-75